sensor_id;sensor_type;location;lat;lon;timestamp;P1;durP1;ratioP1;P2;durP2;ratioP2
35380;SDS011;21486;51.916;8.378;2024-03-06T00:01:42;66.47;;;33.33;;
35380;SDS011;21486;51.916;8.378;2024-03-06T00:04:07;67.23;;;34.27;;
35380;SDS011;21486;51.916;8.378;2024-03-06T00:06:33;62.83;;;32.80;;
35380;SDS011;21486;51.916;8.378;2024-03-06T00:08:59;72.67;;;32.90;;
35380;SDS011;21486;51.916;8.378;2024-03-06T00:11:27;73.05;;;32.88;;
35380;SDS011;21486;51.916;8.378;2024-03-06T00:13:53;70.70;;;34.47;;
35380;SDS011;21486;51.916;8.378;2024-03-06T00:16:18;74.57;;;34.13;;
35380;SDS011;21486;51.916;8.378;2024-03-06T00:18:45;76.35;;;34.47;;
35380;SDS011;21486;51.916;8.378;2024-03-06T00:21:10;77.60;;;35.07;;
35380;SDS011;21486;51.916;8.378;2024-03-06T00:23:36;72.40;;;35.20;;
35380;SDS011;21486;51.916;8.378;2024-03-06T00:26:02;75.45;;;35.05;;
35380;SDS011;21486;51.916;8.378;2024-03-06T00:28:28;77.15;;;35.72;;
35380;SDS011;21486;51.916;8.378;2024-03-06T00:30:54;74.67;;;35.83;;
35380;SDS011;21486;51.916;8.378;2024-03-06T00:33:21;92.93;;;39.37;;
35380;SDS011;21486;51.916;8.378;2024-03-06T00:35:47;91.00;;;37.87;;
35380;SDS011;21486;51.916;8.378;2024-03-06T00:38:12;97.20;;;38.80;;
35380;SDS011;21486;51.916;8.378;2024-03-06T00:40:38;87.93;;;38.45;;
35380;SDS011;21486;51.916;8.378;2024-03-06T00:43:04;89.03;;;37.38;;
35380;SDS011;21486;51.916;8.378;2024-03-06T00:45:30;94.82;;;40.55;;
35380;SDS011;21486;51.916;8.378;2024-03-06T00:47:56;90.77;;;40.90;;
35380;SDS011;21486;51.916;8.378;2024-03-06T00:50:22;99.93;;;41.67;;
35380;SDS011;21486;51.916;8.378;2024-03-06T00:52:48;93.17;;;41.17;;
35380;SDS011;21486;51.916;8.378;2024-03-06T00:55:13;94.97;;;42.03;;
35380;SDS011;21486;51.916;8.378;2024-03-06T00:57:39;100.10;;;42.13;;
35380;SDS011;21486;51.916;8.378;2024-03-06T01:00:05;116.53;;;44.03;;
35380;SDS011;21486;51.916;8.378;2024-03-06T01:02:35;104.03;;;43.08;;
35380;SDS011;21486;51.916;8.378;2024-03-06T01:05:01;109.85;;;42.05;;
35380;SDS011;21486;51.916;8.378;2024-03-06T01:07:28;109.78;;;44.60;;
35380;SDS011;21486;51.916;8.378;2024-03-06T01:09:55;108.32;;;44.45;;
35380;SDS011;21486;51.916;8.378;2024-03-06T01:12:22;103.40;;;44.28;;
35380;SDS011;21486;51.916;8.378;2024-03-06T01:14:48;112.28;;;46.65;;
35380;SDS011;21486;51.916;8.378;2024-03-06T01:17:13;102.43;;;42.85;;
35380;SDS011;21486;51.916;8.378;2024-03-06T01:19:39;105.60;;;44.57;;
35380;SDS011;21486;51.916;8.378;2024-03-06T01:22:04;117.43;;;45.27;;
35380;SDS011;21486;51.916;8.378;2024-03-06T01:24:30;108.27;;;43.77;;
35380;SDS011;21486;51.916;8.378;2024-03-06T01:26:55;108.45;;;43.50;;
35380;SDS011;21486;51.916;8.378;2024-03-06T01:29:21;101.97;;;43.08;;
35380;SDS011;21486;51.916;8.378;2024-03-06T01:33:04;108.88;;;43.78;;
35380;SDS011;21486;51.916;8.378;2024-03-06T01:35:30;99.88;;;43.15;;
35380;SDS011;21486;51.916;8.378;2024-03-06T01:37:55;102.40;;;43.53;;
35380;SDS011;21486;51.916;8.378;2024-03-06T01:40:21;107.53;;;45.00;;
35380;SDS011;21486;51.916;8.378;2024-03-06T01:42:46;116.03;;;46.63;;
35380;SDS011;21486;51.916;8.378;2024-03-06T01:45:14;117.05;;;47.90;;
35380;SDS011;21486;51.916;8.378;2024-03-06T01:47:39;116.80;;;48.50;;
35380;SDS011;21486;51.916;8.378;2024-03-06T01:50:05;120.00;;;48.90;;
35380;SDS011;21486;51.916;8.378;2024-03-06T01:52:34;122.00;;;46.80;;
35380;SDS011;21486;51.916;8.378;2024-03-06T01:55:00;122.95;;;46.75;;
35380;SDS011;21486;51.916;8.378;2024-03-06T01:57:26;120.60;;;46.37;;
35380;SDS011;21486;51.916;8.378;2024-03-06T01:59:52;105.28;;;44.72;;
35380;SDS011;21486;51.916;8.378;2024-03-06T02:02:18;117.95;;;46.95;;
35380;SDS011;21486;51.916;8.378;2024-03-06T02:04:44;117.05;;;45.90;;
35380;SDS011;21486;51.916;8.378;2024-03-06T02:07:10;110.88;;;45.58;;
35380;SDS011;21486;51.916;8.378;2024-03-06T02:09:37;110.82;;;45.40;;
35380;SDS011;21486;51.916;8.378;2024-03-06T02:12:03;112.10;;;45.05;;
35380;SDS011;21486;51.916;8.378;2024-03-06T02:14:30;107.25;;;45.85;;
35380;SDS011;21486;51.916;8.378;2024-03-06T02:16:55;115.63;;;46.50;;
35380;SDS011;21486;51.916;8.378;2024-03-06T02:19:21;111.10;;;45.67;;
35380;SDS011;21486;51.916;8.378;2024-03-06T02:21:46;100.77;;;43.17;;
35380;SDS011;21486;51.916;8.378;2024-03-06T02:24:12;102.03;;;42.87;;
35380;SDS011;21486;51.916;8.378;2024-03-06T02:26:38;119.57;;;45.13;;
35380;SDS011;21486;51.916;8.378;2024-03-06T02:29:03;110.53;;;45.87;;
35380;SDS011;21486;51.916;8.378;2024-03-06T02:31:31;108.43;;;44.95;;
35380;SDS011;21486;51.916;8.378;2024-03-06T02:33:57;114.53;;;45.13;;
35380;SDS011;21486;51.916;8.378;2024-03-06T02:36:23;102.65;;;43.45;;
35380;SDS011;21486;51.916;8.378;2024-03-06T02:38:49;101.82;;;44.67;;
35380;SDS011;21486;51.916;8.378;2024-03-06T02:41:14;108.20;;;44.67;;
35380;SDS011;21486;51.916;8.378;2024-03-06T02:43:41;105.03;;;45.00;;
35380;SDS011;21486;51.916;8.378;2024-03-06T02:46:07;105.55;;;44.53;;
35380;SDS011;21486;51.916;8.378;2024-03-06T02:48:32;97.93;;;42.73;;
35380;SDS011;21486;51.916;8.378;2024-03-06T02:50:58;93.53;;;43.00;;
35380;SDS011;21486;51.916;8.378;2024-03-06T02:53:24;102.67;;;42.40;;
35380;SDS011;21486;51.916;8.378;2024-03-06T02:55:50;105.88;;;41.63;;
35380;SDS011;21486;51.916;8.378;2024-03-06T02:58:16;96.53;;;41.60;;
35380;SDS011;21486;51.916;8.378;2024-03-06T03:00:42;100.60;;;41.47;;
35380;SDS011;21486;51.916;8.378;2024-03-06T03:03:08;98.25;;;42.00;;
35380;SDS011;21486;51.916;8.378;2024-03-06T03:05:34;104.32;;;43.10;;
35380;SDS011;21486;51.916;8.378;2024-03-06T03:08:01;101.75;;;42.58;;
35380;SDS011;21486;51.916;8.378;2024-03-06T03:10:26;106.30;;;42.43;;
35380;SDS011;21486;51.916;8.378;2024-03-06T03:12:52;106.95;;;44.15;;
35380;SDS011;21486;51.916;8.378;2024-03-06T03:15:19;100.90;;;42.92;;
35380;SDS011;21486;51.916;8.378;2024-03-06T03:17:45;107.22;;;43.03;;
35380;SDS011;21486;51.916;8.378;2024-03-06T03:20:11;104.22;;;41.75;;
35380;SDS011;21486;51.916;8.378;2024-03-06T03:22:37;107.53;;;43.70;;
35380;SDS011;21486;51.916;8.378;2024-03-06T03:25:03;108.07;;;43.38;;
35380;SDS011;21486;51.916;8.378;2024-03-06T03:27:32;111.55;;;43.20;;
35380;SDS011;21486;51.916;8.378;2024-03-06T03:29:58;108.47;;;44.20;;
35380;SDS011;21486;51.916;8.378;2024-03-06T03:32:23;100.83;;;42.60;;
35380;SDS011;21486;51.916;8.378;2024-03-06T03:34:49;108.30;;;43.87;;
35380;SDS011;21486;51.916;8.378;2024-03-06T03:37:14;105.95;;;43.33;;
35380;SDS011;21486;51.916;8.378;2024-03-06T03:39:40;98.95;;;42.08;;
35380;SDS011;21486;51.916;8.378;2024-03-06T03:42:07;110.88;;;44.15;;
35380;SDS011;21486;51.916;8.378;2024-03-06T03:44:32;114.80;;;46.10;;
35380;SDS011;21486;51.916;8.378;2024-03-06T03:46:58;112.90;;;44.40;;
35380;SDS011;21486;51.916;8.378;2024-03-06T03:49:23;119.93;;;45.83;;
35380;SDS011;21486;51.916;8.378;2024-03-06T03:51:49;109.88;;;44.35;;
35380;SDS011;21486;51.916;8.378;2024-03-06T03:54:14;122.87;;;46.37;;
35380;SDS011;21486;51.916;8.378;2024-03-06T03:56:40;118.90;;;46.60;;
35380;SDS011;21486;51.916;8.378;2024-03-06T03:59:05;119.33;;;47.80;;
35380;SDS011;21486;51.916;8.378;2024-03-06T04:01:31;124.93;;;47.88;;
35380;SDS011;21486;51.916;8.378;2024-03-06T04:03:56;125.10;;;47.10;;
35380;SDS011;21486;51.916;8.378;2024-03-06T04:06:22;116.67;;;45.53;;
35380;SDS011;21486;51.916;8.378;2024-03-06T04:08:47;113.47;;;44.50;;
35380;SDS011;21486;51.916;8.378;2024-03-06T04:11:13;125.20;;;47.10;;
35380;SDS011;21486;51.916;8.378;2024-03-06T04:13:39;128.80;;;46.97;;
35380;SDS011;21486;51.916;8.378;2024-03-06T04:16:05;127.05;;;48.25;;
35380;SDS011;21486;51.916;8.378;2024-03-06T04:18:31;123.20;;;46.72;;
35380;SDS011;21486;51.916;8.378;2024-03-06T04:20:59;111.15;;;45.13;;
35380;SDS011;21486;51.916;8.378;2024-03-06T04:23:29;103.85;;;43.85;;
35380;SDS011;21486;51.916;8.378;2024-03-06T04:25:54;113.63;;;45.70;;
35380;SDS011;21486;51.916;8.378;2024-03-06T04:28:20;104.17;;;44.50;;
35380;SDS011;21486;51.916;8.378;2024-03-06T04:30:45;113.87;;;44.83;;
35380;SDS011;21486;51.916;8.378;2024-03-06T04:33:11;119.13;;;47.28;;
35380;SDS011;21486;51.916;8.378;2024-03-06T04:35:39;116.72;;;46.72;;
35380;SDS011;21486;51.916;8.378;2024-03-06T04:38:04;105.45;;;45.47;;
35380;SDS011;21486;51.916;8.378;2024-03-06T04:40:31;103.28;;;42.55;;
35380;SDS011;21486;51.916;8.378;2024-03-06T04:42:56;97.57;;;43.80;;
35380;SDS011;21486;51.916;8.378;2024-03-06T04:45:22;108.67;;;44.23;;
35380;SDS011;21486;51.916;8.378;2024-03-06T04:47:48;109.17;;;44.63;;
35380;SDS011;21486;51.916;8.378;2024-03-06T04:50:13;104.43;;;43.57;;
35380;SDS011;21486;51.916;8.378;2024-03-06T04:52:42;104.93;;;42.42;;
35380;SDS011;21486;51.916;8.378;2024-03-06T04:55:09;103.37;;;43.53;;
35380;SDS011;21486;51.916;8.378;2024-03-06T04:57:36;105.50;;;44.10;;
35380;SDS011;21486;51.916;8.378;2024-03-06T05:00:02;93.82;;;41.97;;
35380;SDS011;21486;51.916;8.378;2024-03-06T05:02:31;95.88;;;42.10;;
35380;SDS011;21486;51.916;8.378;2024-03-06T05:05:00;105.03;;;43.95;;
35380;SDS011;21486;51.916;8.378;2024-03-06T05:07:27;97.93;;;43.78;;
35380;SDS011;21486;51.916;8.378;2024-03-06T05:09:54;94.60;;;40.23;;
35380;SDS011;21486;51.916;8.378;2024-03-06T05:12:19;97.27;;;41.33;;
35380;SDS011;21486;51.916;8.378;2024-03-06T05:14:45;89.80;;;40.23;;
35380;SDS011;21486;51.916;8.378;2024-03-06T05:17:10;91.13;;;39.53;;
35380;SDS011;21486;51.916;8.378;2024-03-06T05:19:36;92.28;;;41.10;;
35380;SDS011;21486;51.916;8.378;2024-03-06T05:22:02;88.85;;;39.65;;
35380;SDS011;21486;51.916;8.378;2024-03-06T05:24:28;92.03;;;40.55;;
35380;SDS011;21486;51.916;8.378;2024-03-06T05:26:55;86.22;;;39.60;;
35380;SDS011;21486;51.916;8.378;2024-03-06T05:29:20;87.82;;;39.72;;
35380;SDS011;21486;51.916;8.378;2024-03-06T05:31:46;81.85;;;39.50;;
35380;SDS011;21486;51.916;8.378;2024-03-06T05:34:11;84.43;;;37.80;;
35380;SDS011;21486;51.916;8.378;2024-03-06T05:36:37;85.87;;;38.63;;
35380;SDS011;21486;51.916;8.378;2024-03-06T05:39:02;92.43;;;39.30;;
35380;SDS011;21486;51.916;8.378;2024-03-06T05:41:37;80.60;;;36.92;;
35380;SDS011;21486;51.916;8.378;2024-03-06T05:44:04;77.72;;;37.22;;
35380;SDS011;21486;51.916;8.378;2024-03-06T05:46:29;80.28;;;36.35;;
35380;SDS011;21486;51.916;8.378;2024-03-06T05:48:55;78.90;;;38.17;;
35380;SDS011;21486;51.916;8.378;2024-03-06T05:51:20;75.37;;;36.47;;
35380;SDS011;21486;51.916;8.378;2024-03-06T05:53:46;70.65;;;36.15;;
35380;SDS011;21486;51.916;8.378;2024-03-06T05:56:11;69.83;;;34.93;;
35380;SDS011;21486;51.916;8.378;2024-03-06T05:58:37;75.67;;;35.57;;
35380;SDS011;21486;51.916;8.378;2024-03-06T06:01:02;73.00;;;34.37;;
35380;SDS011;21486;51.916;8.378;2024-03-06T06:03:28;69.35;;;35.13;;
35380;SDS011;21486;51.916;8.378;2024-03-06T06:05:55;70.68;;;36.70;;
35380;SDS011;21486;51.916;8.378;2024-03-06T06:08:20;71.97;;;35.28;;
35380;SDS011;21486;51.916;8.378;2024-03-06T06:10:46;73.95;;;35.83;;
35380;SDS011;21486;51.916;8.378;2024-03-06T06:13:11;73.83;;;36.07;;
35380;SDS011;21486;51.916;8.378;2024-03-06T06:15:37;78.13;;;36.43;;
35380;SDS011;21486;51.916;8.378;2024-03-06T06:18:03;72.53;;;35.17;;
35380;SDS011;21486;51.916;8.378;2024-03-06T06:20:29;76.70;;;36.23;;
35380;SDS011;21486;51.916;8.378;2024-03-06T06:22:55;81.18;;;37.65;;
35380;SDS011;21486;51.916;8.378;2024-03-06T06:25:20;85.43;;;38.67;;
35380;SDS011;21486;51.916;8.378;2024-03-06T06:27:46;84.30;;;39.10;;
35380;SDS011;21486;51.916;8.378;2024-03-06T06:30:13;93.57;;;39.92;;
35380;SDS011;21486;51.916;8.378;2024-03-06T06:32:39;86.93;;;40.63;;
35380;SDS011;21486;51.916;8.378;2024-03-06T06:35:08;84.47;;;39.08;;
35380;SDS011;21486;51.916;8.378;2024-03-06T06:37:34;98.30;;;41.45;;
35380;SDS011;21486;51.916;8.378;2024-03-06T06:40:00;96.50;;;42.55;;
35380;SDS011;21486;51.916;8.378;2024-03-06T06:42:31;84.65;;;38.53;;
35380;SDS011;21486;51.916;8.378;2024-03-06T06:44:58;89.32;;;39.05;;
35380;SDS011;21486;51.916;8.378;2024-03-06T06:47:24;83.80;;;40.47;;
35380;SDS011;21486;51.916;8.378;2024-03-06T06:49:49;91.37;;;39.93;;
35380;SDS011;21486;51.916;8.378;2024-03-06T06:52:15;87.43;;;40.15;;
35380;SDS011;21486;51.916;8.378;2024-03-06T06:54:40;91.72;;;39.70;;
35380;SDS011;21486;51.916;8.378;2024-03-06T06:57:06;82.40;;;38.13;;
35380;SDS011;21486;51.916;8.378;2024-03-06T06:59:33;85.25;;;38.35;;
35380;SDS011;21486;51.916;8.378;2024-03-06T07:01:59;83.05;;;38.88;;
35380;SDS011;21486;51.916;8.378;2024-03-06T07:04:25;85.33;;;37.60;;
35380;SDS011;21486;51.916;8.378;2024-03-06T07:06:51;84.27;;;37.67;;
35380;SDS011;21486;51.916;8.378;2024-03-06T07:09:16;82.53;;;38.47;;
35380;SDS011;21486;51.916;8.378;2024-03-06T07:11:43;90.65;;;38.45;;
35380;SDS011;21486;51.916;8.378;2024-03-06T07:14:09;86.87;;;39.70;;
35380;SDS011;21486;51.916;8.378;2024-03-06T07:16:46;86.53;;;38.40;;
35380;SDS011;21486;51.916;8.378;2024-03-06T07:19:12;84.30;;;39.23;;
35380;SDS011;21486;51.916;8.378;2024-03-06T07:21:37;80.13;;;38.97;;
35380;SDS011;21486;51.916;8.378;2024-03-06T07:24:03;79.63;;;36.90;;
35380;SDS011;21486;51.916;8.378;2024-03-06T07:26:31;78.55;;;37.72;;
35380;SDS011;21486;51.916;8.378;2024-03-06T07:28:57;77.68;;;37.15;;
35380;SDS011;21486;51.916;8.378;2024-03-06T07:31:23;82.33;;;38.20;;
35380;SDS011;21486;51.916;8.378;2024-03-06T07:33:49;80.30;;;39.05;;
35380;SDS011;21486;51.916;8.378;2024-03-06T07:36:15;83.18;;;38.70;;
35380;SDS011;21486;51.916;8.378;2024-03-06T07:38:43;77.65;;;37.33;;
35380;SDS011;21486;51.916;8.378;2024-03-06T07:41:09;84.83;;;38.77;;
35380;SDS011;21486;51.916;8.378;2024-03-06T07:43:35;84.75;;;39.30;;
35380;SDS011;21486;51.916;8.378;2024-03-06T07:46:01;83.47;;;38.40;;
35380;SDS011;21486;51.916;8.378;2024-03-06T07:48:26;91.67;;;39.53;;
35380;SDS011;21486;51.916;8.378;2024-03-06T07:50:52;82.37;;;37.77;;
35380;SDS011;21486;51.916;8.378;2024-03-06T07:53:17;80.38;;;36.83;;
35380;SDS011;21486;51.916;8.378;2024-03-06T07:55:43;81.07;;;36.57;;
35380;SDS011;21486;51.916;8.378;2024-03-06T07:58:09;85.90;;;38.90;;
35380;SDS011;21486;51.916;8.378;2024-03-06T08:00:35;84.47;;;37.73;;
35380;SDS011;21486;51.916;8.378;2024-03-06T08:03:00;84.15;;;38.17;;
35380;SDS011;21486;51.916;8.378;2024-03-06T08:05:26;85.10;;;37.90;;
35380;SDS011;21486;51.916;8.378;2024-03-06T08:07:53;81.45;;;37.45;;
35380;SDS011;21486;51.916;8.378;2024-03-06T08:10:18;79.27;;;37.33;;
35380;SDS011;21486;51.916;8.378;2024-03-06T08:12:44;77.90;;;36.83;;
35380;SDS011;21486;51.916;8.378;2024-03-06T08:15:11;79.85;;;37.70;;
35380;SDS011;21486;51.916;8.378;2024-03-06T08:17:42;71.15;;;35.80;;
35380;SDS011;21486;51.916;8.378;2024-03-06T08:20:08;77.78;;;37.30;;
35380;SDS011;21486;51.916;8.378;2024-03-06T08:22:38;74.35;;;36.35;;
35380;SDS011;21486;51.916;8.378;2024-03-06T08:25:09;73.67;;;34.87;;
35380;SDS011;21486;51.916;8.378;2024-03-06T08:27:37;68.40;;;34.33;;
35380;SDS011;21486;51.916;8.378;2024-03-06T08:30:04;69.83;;;34.43;;
35380;SDS011;21486;51.916;8.378;2024-03-06T08:32:31;78.00;;;36.47;;
35380;SDS011;21486;51.916;8.378;2024-03-06T08:37:34;81.85;;;38.60;;
35380;SDS011;21486;51.916;8.378;2024-03-06T08:40:00;81.13;;;40.55;;
35380;SDS011;21486;51.916;8.378;2024-03-06T08:42:26;78.18;;;38.28;;
35380;SDS011;21486;51.916;8.378;2024-03-06T08:44:52;81.10;;;38.03;;
35380;SDS011;21486;51.916;8.378;2024-03-06T08:47:18;79.67;;;36.70;;
35380;SDS011;21486;51.916;8.378;2024-03-06T08:49:43;70.80;;;34.00;;
35380;SDS011;21486;51.916;8.378;2024-03-06T08:52:09;73.32;;;35.35;;
35380;SDS011;21486;51.916;8.378;2024-03-06T08:54:35;73.68;;;35.85;;
35380;SDS011;21486;51.916;8.378;2024-03-06T08:57:01;66.60;;;33.25;;
35380;SDS011;21486;51.916;8.378;2024-03-06T08:59:28;73.18;;;34.75;;
35380;SDS011;21486;51.916;8.378;2024-03-06T09:01:54;71.23;;;34.20;;
35380;SDS011;21486;51.916;8.378;2024-03-06T09:04:20;68.25;;;33.92;;
35380;SDS011;21486;51.916;8.378;2024-03-06T09:06:46;72.82;;;35.08;;
35380;SDS011;21486;51.916;8.378;2024-03-06T09:09:12;72.95;;;34.67;;
35380;SDS011;21486;51.916;8.378;2024-03-06T09:11:40;74.57;;;35.37;;
35380;SDS011;21486;51.916;8.378;2024-03-06T09:14:07;65.93;;;33.78;;
35380;SDS011;21486;51.916;8.378;2024-03-06T09:16:34;73.32;;;35.33;;
35380;SDS011;21486;51.916;8.378;2024-03-06T09:18:59;72.72;;;34.22;;
35380;SDS011;21486;51.916;8.378;2024-03-06T09:21:25;67.38;;;33.10;;
35380;SDS011;21486;51.916;8.378;2024-03-06T09:23:50;67.78;;;32.97;;
35380;SDS011;21486;51.916;8.378;2024-03-06T09:26:16;70.80;;;32.90;;
35380;SDS011;21486;51.916;8.378;2024-03-06T09:28:42;65.20;;;33.17;;
35380;SDS011;21486;51.916;8.378;2024-03-06T09:31:08;65.87;;;33.10;;
35380;SDS011;21486;51.916;8.378;2024-03-06T09:33:33;67.30;;;32.47;;
35380;SDS011;21486;51.916;8.378;2024-03-06T09:35:59;71.50;;;34.22;;
35380;SDS011;21486;51.916;8.378;2024-03-06T09:38:24;66.43;;;32.63;;
35380;SDS011;21486;51.916;8.378;2024-03-06T09:40:50;60.47;;;31.77;;
35380;SDS011;21486;51.916;8.378;2024-03-06T09:43:16;57.97;;;30.35;;
35380;SDS011;21486;51.916;8.378;2024-03-06T09:45:43;61.78;;;31.02;;
35380;SDS011;21486;51.916;8.378;2024-03-06T09:48:13;65.50;;;32.22;;
35380;SDS011;21486;51.916;8.378;2024-03-06T09:50:38;58.17;;;30.77;;
35380;SDS011;21486;51.916;8.378;2024-03-06T09:53:10;57.47;;;29.88;;
35380;SDS011;21486;51.916;8.378;2024-03-06T09:55:39;58.92;;;31.92;;
35380;SDS011;21486;51.916;8.378;2024-03-06T09:58:06;58.35;;;31.02;;
35380;SDS011;21486;51.916;8.378;2024-03-06T10:00:33;60.80;;;30.80;;
35380;SDS011;21486;51.916;8.378;2024-03-06T10:03:02;59.42;;;30.27;;
35380;SDS011;21486;51.916;8.378;2024-03-06T10:05:30;57.17;;;29.52;;
35380;SDS011;21486;51.916;8.378;2024-03-06T10:07:58;51.35;;;27.45;;
35380;SDS011;21486;51.916;8.378;2024-03-06T10:10:25;51.72;;;27.38;;
35380;SDS011;21486;51.916;8.378;2024-03-06T10:12:51;48.78;;;26.58;;
35380;SDS011;21486;51.916;8.378;2024-03-06T10:15:17;49.28;;;26.77;;
35380;SDS011;21486;51.916;8.378;2024-03-06T10:17:43;50.40;;;26.75;;
35380;SDS011;21486;51.916;8.378;2024-03-06T10:20:20;46.30;;;24.67;;
35380;SDS011;21486;51.916;8.378;2024-03-06T10:22:48;43.35;;;24.23;;
35380;SDS011;21486;51.916;8.378;2024-03-06T10:25:21;46.25;;;24.73;;
35380;SDS011;21486;51.916;8.378;2024-03-06T10:28:03;43.40;;;24.60;;
35380;SDS011;21486;51.916;8.378;2024-03-06T10:30:33;40.25;;;22.98;;
35380;SDS011;21486;51.916;8.378;2024-03-06T10:33:01;38.47;;;21.52;;
35380;SDS011;21486;51.916;8.378;2024-03-06T10:35:28;36.85;;;21.88;;
35380;SDS011;21486;51.916;8.378;2024-03-06T10:37:54;41.10;;;22.80;;
35380;SDS011;21486;51.916;8.378;2024-03-06T10:40:19;43.35;;;22.35;;
35380;SDS011;21486;51.916;8.378;2024-03-06T10:42:47;36.45;;;21.15;;
35380;SDS011;21486;51.916;8.378;2024-03-06T10:45:14;37.40;;;20.85;;
35380;SDS011;21486;51.916;8.378;2024-03-06T10:47:45;39.72;;;21.60;;
35380;SDS011;21486;51.916;8.378;2024-03-06T10:50:15;41.50;;;21.08;;
35380;SDS011;21486;51.916;8.378;2024-03-06T10:52:41;35.20;;;19.90;;
35380;SDS011;21486;51.916;8.378;2024-03-06T10:55:08;35.25;;;19.85;;
35380;SDS011;21486;51.916;8.378;2024-03-06T10:57:35;36.40;;;20.50;;
35380;SDS011;21486;51.916;8.378;2024-03-06T11:00:01;38.15;;;21.00;;
35380;SDS011;21486;51.916;8.378;2024-03-06T11:02:27;37.80;;;20.63;;
35380;SDS011;21486;51.916;8.378;2024-03-06T11:04:54;37.25;;;19.98;;
35380;SDS011;21486;51.916;8.378;2024-03-06T11:07:19;38.63;;;20.88;;
35380;SDS011;21486;51.916;8.378;2024-03-06T11:09:45;36.55;;;19.60;;
35380;SDS011;21486;51.916;8.378;2024-03-06T11:12:35;36.28;;;19.88;;
35380;SDS011;21486;51.916;8.378;2024-03-06T11:15:36;38.67;;;21.30;;
35380;SDS011;21486;51.916;8.378;2024-03-06T11:17:54;37.53;;;20.77;;
35380;SDS011;21486;51.916;8.378;2024-03-06T11:20:20;37.37;;;20.53;;
35380;SDS011;21486;51.916;8.378;2024-03-06T11:28:14;39.63;;;21.60;;
35380;SDS011;21486;51.916;8.378;2024-03-06T11:30:54;40.60;;;21.45;;
35380;SDS011;21486;51.916;8.378;2024-03-06T11:33:37;41.90;;;21.27;;
35380;SDS011;21486;51.916;8.378;2024-03-06T11:36:23;40.42;;;21.33;;
35380;SDS011;21486;51.916;8.378;2024-03-06T11:38:56;42.17;;;22.98;;
35380;SDS011;21486;51.916;8.378;2024-03-06T11:41:29;46.55;;;24.33;;
35380;SDS011;21486;51.916;8.378;2024-03-06T11:44:17;47.03;;;23.80;;
35380;SDS011;21486;51.916;8.378;2024-03-06T11:46:58;45.40;;;25.02;;
35380;SDS011;21486;51.916;8.378;2024-03-06T11:49:28;45.20;;;24.33;;
35380;SDS011;21486;51.916;8.378;2024-03-06T11:51:56;44.72;;;23.13;;
35380;SDS011;21486;51.916;8.378;2024-03-06T11:54:30;45.38;;;23.60;;
35380;SDS011;21486;51.916;8.378;2024-03-06T11:56:57;43.28;;;22.70;;
35380;SDS011;21486;51.916;8.378;2024-03-06T11:59:28;41.85;;;22.55;;
35380;SDS011;21486;51.916;8.378;2024-03-06T12:01:55;47.47;;;23.17;;
35380;SDS011;21486;51.916;8.378;2024-03-06T12:04:22;44.97;;;23.38;;
35380;SDS011;21486;51.916;8.378;2024-03-06T12:06:47;49.27;;;25.17;;
35380;SDS011;21486;51.916;8.378;2024-03-06T12:09:14;54.95;;;27.90;;
35380;SDS011;21486;51.916;8.378;2024-03-06T12:11:40;61.45;;;28.88;;
35380;SDS011;21486;51.916;8.378;2024-03-06T12:14:12;57.85;;;29.25;;
35380;SDS011;21486;51.916;8.378;2024-03-06T12:16:43;60.90;;;30.45;;
35380;SDS011;21486;51.916;8.378;2024-03-06T12:19:43;63.97;;;29.90;;
35380;SDS011;21486;51.916;8.378;2024-03-06T12:22:11;72.25;;;32.80;;
35380;SDS011;21486;51.916;8.378;2024-03-06T12:24:37;71.25;;;32.53;;
35380;SDS011;21486;51.916;8.378;2024-03-06T12:27:03;68.30;;;32.60;;
35380;SDS011;21486;51.916;8.378;2024-03-06T12:29:30;67.22;;;32.92;;
35380;SDS011;21486;51.916;8.378;2024-03-06T12:31:57;68.20;;;33.33;;
35380;SDS011;21486;51.916;8.378;2024-03-06T12:34:22;70.50;;;33.53;;
35380;SDS011;21486;51.916;8.378;2024-03-06T12:36:48;68.07;;;33.33;;
35380;SDS011;21486;51.916;8.378;2024-03-06T12:39:15;70.53;;;33.38;;
35380;SDS011;21486;51.916;8.378;2024-03-06T12:41:45;71.03;;;32.75;;
35380;SDS011;21486;51.916;8.378;2024-03-06T12:44:11;67.68;;;32.25;;
35380;SDS011;21486;51.916;8.378;2024-03-06T12:46:37;63.53;;;30.90;;
35380;SDS011;21486;51.916;8.378;2024-03-06T12:49:02;64.97;;;30.97;;
35380;SDS011;21486;51.916;8.378;2024-03-06T12:51:28;60.10;;;29.43;;
35380;SDS011;21486;51.916;8.378;2024-03-06T12:53:53;61.10;;;30.00;;
35380;SDS011;21486;51.916;8.378;2024-03-06T12:56:19;66.57;;;30.23;;
35380;SDS011;21486;51.916;8.378;2024-03-06T12:58:45;56.57;;;28.53;;
35380;SDS011;21486;51.916;8.378;2024-03-06T13:01:10;57.70;;;28.80;;
35380;SDS011;21486;51.916;8.378;2024-03-06T13:03:36;65.00;;;29.80;;
35380;SDS011;21486;51.916;8.378;2024-03-06T13:06:03;64.53;;;29.67;;
35380;SDS011;21486;51.916;8.378;2024-03-06T13:08:29;64.07;;;29.48;;
35380;SDS011;21486;51.916;8.378;2024-03-06T13:10:55;66.40;;;30.83;;
35380;SDS011;21486;51.916;8.378;2024-03-06T13:13:21;68.13;;;32.28;;
35380;SDS011;21486;51.916;8.378;2024-03-06T13:15:48;66.22;;;30.05;;
35380;SDS011;21486;51.916;8.378;2024-03-06T13:18:14;69.78;;;31.92;;
35380;SDS011;21486;51.916;8.378;2024-03-06T13:20:40;75.30;;;30.88;;
35380;SDS011;21486;51.916;8.378;2024-03-06T13:23:06;63.50;;;31.33;;
35380;SDS011;21486;51.916;8.378;2024-03-06T13:25:31;65.90;;;30.00;;
35380;SDS011;21486;51.916;8.378;2024-03-06T13:27:57;62.03;;;30.40;;
35380;SDS011;21486;51.916;8.378;2024-03-06T13:30:22;66.27;;;31.10;;
35380;SDS011;21486;51.916;8.378;2024-03-06T13:32:49;66.97;;;31.40;;
35380;SDS011;21486;51.916;8.378;2024-03-06T13:35:15;66.60;;;32.47;;
35380;SDS011;21486;51.916;8.378;2024-03-06T13:37:42;74.13;;;31.85;;
35380;SDS011;21486;51.916;8.378;2024-03-06T13:40:08;67.97;;;32.17;;
35380;SDS011;21486;51.916;8.378;2024-03-06T13:42:35;74.07;;;32.28;;
35380;SDS011;21486;51.916;8.378;2024-03-06T13:45:02;67.97;;;31.52;;
35380;SDS011;21486;51.916;8.378;2024-03-06T13:47:28;66.60;;;31.42;;
35380;SDS011;21486;51.916;8.378;2024-03-06T13:49:55;69.93;;;31.38;;
35380;SDS011;21486;51.916;8.378;2024-03-06T13:52:21;71.07;;;31.58;;
35380;SDS011;21486;51.916;8.378;2024-03-06T13:54:48;61.55;;;30.17;;
35380;SDS011;21486;51.916;8.378;2024-03-06T13:57:14;63.47;;;32.35;;
35380;SDS011;21486;51.916;8.378;2024-03-06T13:59:40;70.27;;;31.60;;
35380;SDS011;21486;51.916;8.378;2024-03-06T14:02:06;72.53;;;32.00;;
35380;SDS011;21486;51.916;8.378;2024-03-06T14:04:32;76.82;;;32.65;;
35380;SDS011;21486;51.916;8.378;2024-03-06T14:06:57;72.67;;;31.20;;
35380;SDS011;21486;51.916;8.378;2024-03-06T14:09:24;70.03;;;32.13;;
35380;SDS011;21486;51.916;8.378;2024-03-06T14:11:50;66.75;;;31.58;;
35380;SDS011;21486;51.916;8.378;2024-03-06T14:14:19;67.63;;;31.95;;
35380;SDS011;21486;51.916;8.378;2024-03-06T14:16:45;66.40;;;31.37;;
35380;SDS011;21486;51.916;8.378;2024-03-06T14:19:11;70.32;;;31.95;;
35380;SDS011;21486;51.916;8.378;2024-03-06T14:21:37;75.85;;;32.42;;
35380;SDS011;21486;51.916;8.378;2024-03-06T14:24:03;66.70;;;30.88;;
35380;SDS011;21486;51.916;8.378;2024-03-06T14:26:31;72.25;;;31.80;;